Time,TemperatureF,DewpointF,PressureIn,WindDirection,WindDirectionDegrees,WindSpeedMPH,WindSpeedGustMPH,Humidity,HourlyPrecipIn,Conditions,Clouds,dailyrainin,SoftwareType,DateUTC
2013-09-11 00:01:00,76.3,67.8,29.94,West,270,0.0,7.2,75,0.00,,CLR,0.00,VWS V13.01,2013-09-11 04:01:00,
2013-09-11 00:02:00,76.3,68.2,29.94,West,270,0.0,6.3,76,0.00,,CLR,0.00,VWS V13.01,2013-09-11 04:02:00,
2013-09-11 00:07:00,76.1,68.0,29.94,SE,139,0.0,0.0,76,0.00,,CLR,0.00,VWS V13.01,2013-09-11 04:07:00,
2013-09-11 00:09:00,76.1,68.4,29.94,SE,139,0.0,0.0,77,0.00,,CLR,0.00,VWS V13.01,2013-09-11 04:09:00,
2013-09-11 00:11:00,76.1,68.4,29.94,WSW,240,0.0,6.3,77,0.00,,CLR,0.00,VWS V13.01,2013-09-11 04:11:00,
2013-09-11 00:16:00,75.9,68.6,29.94,WSW,240,0.0,0.0,78,0.00,,CLR,0.00,VWS V13.01,2013-09-11 04:16:00,
2013-09-11 00:21:00,75.7,68.4,29.94,WSW,240,0.0,0.0,78,0.00,,CLR,0.00,VWS V13.01,2013-09-11 04:21:00,
2013-09-11 00:23:00,75.6,68.2,29.94,WSW,240,0.0,0.0,78,0.00,,CLR,0.00,VWS V13.01,2013-09-11 04:23:00,
2013-09-11 00:28:00,75.4,68.4,29.94,WSW,240,0.0,0.0,79,0.00,,CLR,0.00,VWS V13.01,2013-09-11 04:28:00,
2013-09-11 00:33:00,75.2,68.2,29.94,WSW,240,0.0,0.0,79,0.00,,CLR,0.00,VWS V13.01,2013-09-11 04:33:00,
2013-09-11 00:37:00,75.0,68.4,29.94,WSW,240,0.0,0.0,80,0.00,,CLR,0.00,VWS V13.01,2013-09-11 04:37:00,
2013-09-11 00:42:00,74.8,68.3,29.94,WSW,240,0.0,0.0,80,0.00,,CLR,0.00,VWS V13.01,2013-09-11 04:42:00,
2013-09-11 00:47:00,74.8,68.6,29.94,WSW,240,0.0,0.0,81,0.00,,CLR,0.00,VWS V13.01,2013-09-11 04:47:00,
2013-09-11 00:52:00,74.7,68.8,29.94,WSW,240,0.0,0.0,82,0.00,,CLR,0.00,VWS V13.01,2013-09-11 04:52:00,
2013-09-11 00:57:00,74.5,69.0,29.94,WSW,240,0.0,0.0,83,0.00,,CLR,0.00,VWS V13.01,2013-09-11 04:57:00,
2013-09-11 01:02:00,74.5,69.0,29.94,WSW,240,0.0,0.0,83,0.00,,CLR,0.00,VWS V13.01,2013-09-11 05:02:00,
2013-09-11 01:07:00,74.3,68.8,29.94,WSW,240,0.0,0.0,83,0.00,,CLR,0.00,VWS V13.01,2013-09-11 05:07:00,
2013-09-11 01:12:00,74.3,69.2,29.94,WSW,240,0.0,0.0,84,0.00,,CLR,0.00,VWS V13.01,2013-09-11 05:12:00,
2013-09-11 01:17:00,74.3,69.2,29.94,WSW,240,0.0,0.0,84,0.00,,CLR,0.00,VWS V13.01,2013-09-11 05:17:00,
2013-09-11 01:22:00,74.1,69.3,29.94,WSW,240,0.0,0.0,85,0.00,,CLR,0.00,VWS V13.01,2013-09-11 05:22:00,
2013-09-11 01:27:00,73.9,69.2,29.94,WSW,240,0.0,0.0,85,0.00,,CLR,0.00,VWS V13.01,2013-09-11 05:27:00,
2013-09-11 01:32:00,73.9,69.5,29.94,SW,222,5.4,7.2,86,0.00,,CLR,0.00,VWS V13.01,2013-09-11 05:32:00,
2013-09-11 01:37:00,73.9,69.8,29.94,SSW,192,6.3,7.2,87,0.00,,CLR,0.00,VWS V13.01,2013-09-11 05:37:00,
2013-09-11 01:42:00,74.1,70.3,29.94,SSW,193,0.0,0.0,88,0.00,,CLR,0.00,VWS V13.01,2013-09-11 05:42:00,
2013-09-11 01:47:00,74.1,70.3,29.94,SSW,192,0.0,0.0,88,0.00,,CLR,0.00,VWS V13.01,2013-09-11 05:47:00,
2013-09-11 01:52:00,74.1,70.3,29.94,SSW,192,0.0,0.0,88,0.00,,CLR,0.00,VWS V13.01,2013-09-11 05:52:00,
2013-09-11 01:57:00,73.9,70.2,29.94,SSW,192,0.0,0.0,88,0.00,,CLR,0.00,VWS V13.01,2013-09-11 05:57:00,
2013-09-11 02:02:00,73.8,70.0,29.91,SSW,192,0.0,0.0,88,0.00,,CLR,0.00,VWS V13.01,2013-09-11 06:02:00,
2013-09-11 02:07:00,73.8,70.0,29.91,SSW,192,0.0,0.0,88,0.00,,CLR,0.00,VWS V13.01,2013-09-11 06:07:00,
2013-09-11 02:13:00,73.6,69.8,29.91,SSW,192,0.0,0.0,88,0.00,,CLR,0.00,VWS V13.01,2013-09-11 06:13:00,
2013-09-11 02:18:00,73.4,69.6,29.91,SSW,193,0.0,0.0,88,0.00,,CLR,0.00,VWS V13.01,2013-09-11 06:18:00,
2013-09-11 02:23:00,73.2,69.8,29.91,SSW,193,0.0,0.0,89,0.00,,CLR,0.00,VWS V13.01,2013-09-11 06:23:00,
2013-09-11 02:28:00,73.2,69.8,29.91,SSW,193,0.0,0.0,89,0.00,,CLR,0.00,VWS V13.01,2013-09-11 06:28:00,
2013-09-11 02:33:00,73.0,69.9,29.91,SSW,193,0.0,0.0,90,0.00,,CLR,0.00,VWS V13.01,2013-09-11 06:33:00,
2013-09-11 02:38:00,72.9,69.8,29.91,SSW,193,0.0,0.0,90,0.00,,CLR,0.00,VWS V13.01,2013-09-11 06:38:00,
2013-09-11 02:43:00,72.9,70.1,29.91,SSW,193,0.0,0.0,91,0.00,,CLR,0.00,VWS V13.01,2013-09-11 06:43:00,
2013-09-11 02:48:00,72.9,70.1,29.91,SSW,192,0.0,0.0,91,0.00,,CLR,0.00,VWS V13.01,2013-09-11 06:48:00,
2013-09-11 02:53:00,72.7,69.9,29.91,SSW,193,0.0,0.0,91,0.00,,CLR,0.00,VWS V13.01,2013-09-11 06:53:00,
2013-09-11 02:58:00,72.7,69.9,29.91,SSW,193,0.0,0.0,91,0.00,,CLR,0.00,VWS V13.01,2013-09-11 06:58:00,
2013-09-11 03:03:00,72.5,70.1,29.91,SSW,193,0.0,0.0,92,0.00,,CLR,0.00,VWS V13.01,2013-09-11 07:03:00,
2013-09-11 03:08:00,72.3,69.9,29.91,SSW,193,0.0,0.0,92,0.00,,CLR,0.00,VWS V13.01,2013-09-11 07:08:00,
2013-09-11 03:13:00,72.3,69.9,29.91,SSW,192,0.0,0.0,92,0.00,,CLR,0.00,VWS V13.01,2013-09-11 07:13:00,
2013-09-11 03:18:00,72.1,69.7,29.91,SSW,193,0.0,0.0,92,0.00,,CLR,0.00,VWS V13.01,2013-09-11 07:18:00,
2013-09-11 03:23:00,72.1,69.7,29.91,SSW,192,0.0,0.0,92,0.00,,CLR,0.00,VWS V13.01,2013-09-11 07:23:00,
2013-09-11 03:28:00,72.1,70.0,29.91,SSW,192,0.0,0.0,93,0.00,,CLR,0.00,VWS V13.01,2013-09-11 07:28:00,
2013-09-11 03:33:00,72.1,70.0,29.91,SSW,192,0.0,0.0,93,0.00,,CLR,0.00,VWS V13.01,2013-09-11 07:33:00,
2013-09-11 03:38:00,72.1,70.0,29.91,SSW,193,0.0,0.0,93,0.00,,CLR,0.00,VWS V13.01,2013-09-11 07:38:00,
2013-09-11 03:43:00,72.0,69.8,29.91,SSW,192,0.0,0.0,93,0.00,,CLR,0.00,VWS V13.01,2013-09-11 07:43:00,
2013-09-11 03:49:00,72.0,69.8,29.91,SSW,192,0.0,0.0,93,0.00,,CLR,0.00,VWS V13.01,2013-09-11 07:49:00,
2013-09-11 03:54:00,71.8,69.7,29.91,SSW,193,0.0,0.0,93,0.00,,CLR,0.00,VWS V13.01,2013-09-11 07:54:00,
2013-09-11 03:59:00,71.8,69.7,29.91,SSW,192,0.0,0.0,93,0.00,,CLR,0.00,VWS V13.01,2013-09-11 07:59:00,
2013-09-11 04:04:00,71.8,69.7,29.91,SSW,193,0.0,0.0,93,0.00,,,0.00,VWS V13.01,2013-09-11 08:04:00,
2013-09-11 04:09:00,71.6,69.8,29.91,SSW,192,0.0,0.0,94,0.00,,,0.00,VWS V13.01,2013-09-11 08:09:00,
2013-09-11 04:14:00,71.6,69.8,29.91,SSW,192,0.0,0.0,94,0.00,,,0.00,VWS V13.01,2013-09-11 08:14:00,
2013-09-11 04:19:00,71.6,69.8,29.91,SSW,193,0.0,0.0,94,0.00,,,0.00,VWS V13.01,2013-09-11 08:19:00,
2013-09-11 04:24:00,71.4,69.6,29.91,SSW,193,0.0,0.0,94,0.00,,,0.00,VWS V13.01,2013-09-11 08:24:00,
2013-09-11 04:29:00,71.4,69.6,29.91,SSW,193,0.0,0.0,94,0.00,,,0.00,VWS V13.01,2013-09-11 08:29:00,
2013-09-11 04:34:00,71.2,69.4,29.91,SSW,192,0.0,0.0,94,0.00,,,0.00,VWS V13.01,2013-09-11 08:34:00,
2013-09-11 04:39:00,71.2,69.4,29.91,SSW,192,0.0,0.0,94,0.00,,,0.00,VWS V13.01,2013-09-11 08:39:00,
2013-09-11 04:44:00,71.2,69.4,29.91,SSW,193,0.0,0.0,94,0.00,,,0.00,VWS V13.01,2013-09-11 08:44:00,
2013-09-11 04:49:00,71.2,69.4,29.91,SSW,193,0.0,0.0,94,0.00,,,0.00,VWS V13.01,2013-09-11 08:49:00,
2013-09-11 04:54:00,71.2,69.4,29.91,SSW,193,0.0,0.0,94,0.00,,,0.00,VWS V13.01,2013-09-11 08:54:00,
2013-09-11 04:59:00,71.1,69.2,29.91,SSW,193,0.0,0.0,94,0.00,,,0.00,VWS V13.01,2013-09-11 08:59:00,
2013-09-11 05:04:00,71.1,69.6,29.91,SSW,192,0.0,0.0,95,0.00,,,0.00,VWS V13.01,2013-09-11 09:04:00,
2013-09-11 05:09:00,71.1,69.6,29.91,SSW,192,0.0,0.0,95,0.00,,,0.00,VWS V13.01,2013-09-11 09:09:00,
2013-09-11 05:14:00,71.1,69.6,29.91,SSW,192,0.0,0.0,95,0.00,,,0.00,VWS V13.01,2013-09-11 09:14:00,
2013-09-11 05:19:00,70.9,69.4,29.91,SSW,193,0.0,0.0,95,0.00,,,0.00,VWS V13.01,2013-09-11 09:19:00,
2013-09-11 05:24:00,71.1,69.6,29.91,SSW,192,0.0,0.0,95,0.00,,,0.00,VWS V13.01,2013-09-11 09:24:00,
2013-09-11 05:29:00,70.9,69.7,29.91,SSW,192,0.0,0.0,96,0.00,,,0.00,VWS V13.01,2013-09-11 09:29:00,
2013-09-11 05:34:00,70.9,69.4,29.91,SSW,192,0.0,0.0,95,0.00,,,0.00,VWS V13.01,2013-09-11 09:34:00,
2013-09-11 05:39:00,70.9,69.7,29.91,SSW,192,0.0,0.0,96,0.00,,,0.00,VWS V13.01,2013-09-11 09:39:00,
2013-09-11 05:46:00,70.9,69.7,29.91,SSW,193,0.0,0.0,96,0.00,,,0.00,VWS V13.01,2013-09-11 09:46:00,
2013-09-11 05:51:00,70.9,69.7,29.91,SSW,193,0.0,0.0,96,0.00,,,0.00,VWS V13.01,2013-09-11 09:51:00,
2013-09-11 05:56:00,70.7,69.5,29.91,SSW,192,0.0,0.0,96,0.00,,,0.00,VWS V13.01,2013-09-11 09:56:00,
2013-09-11 06:01:00,70.7,69.5,29.91,SSW,192,0.0,0.0,96,0.00,,,0.00,VWS V13.01,2013-09-11 10:01:00,
2013-09-11 06:06:00,70.7,69.5,29.94,SSW,193,0.0,0.0,96,0.00,,,0.00,VWS V13.01,2013-09-11 10:06:00,
2013-09-11 06:11:00,70.7,69.5,29.94,SSW,192,0.0,0.0,96,0.00,,,0.00,VWS V13.01,2013-09-11 10:11:00,
2013-09-11 06:16:00,70.7,69.5,29.94,SSW,193,0.0,0.0,96,0.00,,,0.00,VWS V13.01,2013-09-11 10:16:00,
2013-09-11 06:21:00,70.5,69.6,29.94,SSW,192,0.0,0.0,97,0.00,,,0.00,VWS V13.01,2013-09-11 10:21:00,
2013-09-11 06:26:00,70.5,69.6,29.94,SSW,192,0.0,0.0,97,0.00,,,0.00,VWS V13.01,2013-09-11 10:26:00,
2013-09-11 06:31:00,70.5,69.6,29.94,SSW,192,0.0,0.0,97,0.00,,,0.00,VWS V13.01,2013-09-11 10:31:00,
2013-09-11 06:36:00,70.5,69.6,29.94,SSW,192,0.0,0.0,97,0.00,,,0.00,VWS V13.01,2013-09-11 10:36:00,
2013-09-11 06:41:00,70.5,69.6,29.94,SSW,193,0.0,0.0,97,0.00,,,0.00,VWS V13.01,2013-09-11 10:41:00,
2013-09-11 06:46:00,70.5,69.6,29.94,SSW,192,0.0,0.0,97,0.00,,,0.00,VWS V13.01,2013-09-11 10:46:00,
2013-09-11 06:51:00,70.5,69.6,29.94,SSW,193,0.0,0.0,97,0.00,,,0.00,VWS V13.01,2013-09-11 10:51:00,
2013-09-11 06:57:00,70.5,69.6,29.94,SSW,192,0.0,0.0,97,0.00,,,0.00,VWS V13.01,2013-09-11 10:57:00,
2013-09-11 07:02:00,70.5,69.6,29.94,SSW,192,0.0,0.0,97,0.00,,,0.00,VWS V13.01,2013-09-11 11:02:00,
2013-09-11 07:07:00,70.5,69.6,29.94,SSW,193,0.0,0.0,97,0.00,,,0.00,VWS V13.01,2013-09-11 11:07:00,
2013-09-11 07:12:00,70.7,69.8,29.94,SSW,192,0.0,0.0,97,0.00,,,0.00,VWS V13.01,2013-09-11 11:12:00,
2013-09-11 07:17:00,70.9,70.0,29.94,SSW,193,0.0,0.0,97,0.00,,,0.00,VWS V13.01,2013-09-11 11:17:00,
2013-09-11 07:22:00,70.9,70.0,29.94,SSW,192,0.0,0.0,97,0.00,,,0.00,VWS V13.01,2013-09-11 11:22:00,
2013-09-11 07:27:00,71.1,70.2,29.94,SSW,192,0.0,0.0,97,0.00,,,0.00,VWS V13.01,2013-09-11 11:27:00,
2013-09-11 07:32:00,71.2,70.3,29.94,SSW,193,0.0,0.0,97,0.00,,,0.00,VWS V13.01,2013-09-11 11:32:00,
2013-09-11 07:37:00,71.4,70.8,29.94,SSW,192,0.0,0.0,98,0.00,,,0.00,VWS V13.01,2013-09-11 11:37:00,
2013-09-11 07:42:00,71.6,71.0,29.94,SSW,192,0.0,0.0,98,0.00,,,0.00,VWS V13.01,2013-09-11 11:42:00,
2013-09-11 07:47:00,72.0,71.4,29.94,SSW,192,0.0,0.0,98,0.00,,,0.00,VWS V13.01,2013-09-11 11:47:00,
2013-09-11 07:52:00,72.1,71.6,29.94,SSW,193,0.0,0.0,98,0.00,,,0.00,VWS V13.01,2013-09-11 11:52:00,
2013-09-11 07:57:00,72.3,71.7,29.94,SSW,193,0.0,0.0,98,0.00,,,0.00,VWS V13.01,2013-09-11 11:57:00,
2013-09-11 08:02:00,72.7,72.1,29.94,SSW,193,0.0,0.0,98,0.00,,,0.00,VWS V13.01,2013-09-11 12:02:00,
2013-09-11 08:07:00,73.0,72.4,29.94,SSW,193,0.0,0.0,98,0.00,,,0.00,VWS V13.01,2013-09-11 12:07:00,
2013-09-11 08:12:00,73.4,72.8,29.94,SSW,193,0.0,0.0,98,0.00,,,0.00,VWS V13.01,2013-09-11 12:12:00,
2013-09-11 08:17:00,73.8,73.2,29.94,SSW,192,0.0,0.0,98,0.00,,,0.00,VWS V13.01,2013-09-11 12:17:00,
2013-09-11 08:22:00,74.1,73.8,29.94,SSW,193,0.0,0.0,99,0.00,,,0.00,VWS V13.01,2013-09-11 12:22:00,
2013-09-11 08:27:00,74.5,73.9,29.94,SSW,193,0.0,0.0,98,0.00,,,0.00,VWS V13.01,2013-09-11 12:27:00,
2013-09-11 08:32:00,75.0,74.4,29.94,SSW,192,0.0,0.0,98,0.00,,,0.00,VWS V13.01,2013-09-11 12:32:00,
2013-09-11 08:37:00,75.4,74.8,29.94,SSW,193,0.0,0.0,98,0.00,,,0.00,VWS V13.01,2013-09-11 12:37:00,
2013-09-11 08:43:00,75.7,75.1,29.94,SSW,193,0.0,0.0,98,0.00,,,0.00,VWS V13.01,2013-09-11 12:43:00,
2013-09-11 08:48:00,76.1,75.5,29.94,SSW,193,0.0,0.0,98,0.00,,,0.00,VWS V13.01,2013-09-11 12:48:00,
2013-09-11 08:53:00,76.6,76.0,29.94,SSW,192,0.0,0.0,98,0.00,,,0.00,VWS V13.01,2013-09-11 12:53:00,
2013-09-11 08:58:00,77.2,76.6,29.94,SSW,193,0.0,0.0,98,0.00,,,0.00,VWS V13.01,2013-09-11 12:58:00,
2013-09-11 09:03:00,77.7,76.8,29.94,SSW,193,0.0,0.0,97,0.00,,,0.00,VWS V13.01,2013-09-11 13:03:00,
2013-09-11 09:08:00,77.9,76.7,29.94,SSW,192,0.0,0.0,96,0.00,,,0.00,VWS V13.01,2013-09-11 13:08:00,
2013-09-11 09:13:00,78.3,75.8,29.94,SSW,192,0.0,0.0,92,0.00,,,0.00,VWS V13.01,2013-09-11 13:13:00,
2013-09-11 09:18:00,78.6,75.4,29.94,SSW,192,0.0,0.0,90,0.00,,,0.00,VWS V13.01,2013-09-11 13:18:00,
2013-09-11 09:23:00,79.0,74.4,29.94,SSW,193,0.0,0.0,86,0.00,,,0.00,VWS V13.01,2013-09-11 13:23:00,
2013-09-11 09:28:00,79.5,73.6,29.94,SSW,193,0.0,0.0,82,0.00,,,0.00,VWS V13.01,2013-09-11 13:28:00,
2013-09-11 09:33:00,79.9,72.4,29.94,SSW,192,0.0,0.0,78,0.00,,,0.00,VWS V13.01,2013-09-11 13:33:00,
2013-09-11 09:38:00,80.6,72.7,29.94,SSW,192,0.0,0.0,77,0.00,,,0.00,VWS V13.01,2013-09-11 13:38:00,
2013-09-11 09:43:00,81.0,70.3,29.94,SSW,192,0.0,6.3,70,0.00,,,0.00,VWS V13.01,2013-09-11 13:43:00,
2013-09-11 09:48:00,81.5,69.9,29.94,SSW,193,0.0,0.0,68,0.00,,,0.00,VWS V13.01,2013-09-11 13:48:00,
2013-09-11 09:53:00,82.2,70.2,29.94,SSW,193,0.0,0.0,67,0.00,,,0.00,VWS V13.01,2013-09-11 13:53:00,
2013-09-11 09:58:00,82.6,67.8,29.94,SSW,192,5.4,5.4,61,0.00,,,0.00,VWS V13.01,2013-09-11 13:58:00,
2013-09-11 10:03:00,83.1,67.3,29.94,SSW,207,5.4,8.1,59,0.00,,CLR,0.00,VWS V13.01,2013-09-11 14:03:00,
2013-09-11 10:08:00,84.0,68.2,29.94,SW,219,6.3,7.2,59,0.00,,CLR,0.00,VWS V13.01,2013-09-11 14:08:00,
2013-09-11 10:13:00,84.2,66.8,29.94,SW,219,0.0,0.0,56,0.00,,CLR,0.00,VWS V13.01,2013-09-11 14:13:00,
2013-09-11 10:18:00,84.7,67.3,29.94,SSW,200,6.3,6.3,56,0.00,,CLR,0.00,VWS V13.01,2013-09-11 14:18:00,
2013-09-11 10:23:00,84.9,68.0,29.94,NNE,18,0.0,7.2,57,0.00,,CLR,0.00,VWS V13.01,2013-09-11 14:23:00,
2013-09-11 10:28:00,85.6,68.2,29.94,NNE,18,0.0,5.4,56,0.00,,CLR,0.00,VWS V13.01,2013-09-11 14:28:00,
2013-09-11 10:33:00,86.0,68.0,29.94,North,10,0.0,0.0,55,0.00,,CLR,0.00,VWS V13.01,2013-09-11 14:33:00,
2013-09-11 10:38:00,86.2,67.1,29.94,NNE,26,0.0,7.2,53,0.00,,CLR,0.00,VWS V13.01,2013-09-11 14:38:00,
2013-09-11 10:43:00,86.7,68.1,29.94,NNE,27,0.0,6.3,54,0.00,,CLR,0.00,VWS V13.01,2013-09-11 14:43:00,
2013-09-11 10:48:00,87.1,67.3,29.94,SSW,206,0.0,7.2,52,0.00,,CLR,0.00,VWS V13.01,2013-09-11 14:48:00,
2013-09-11 10:53:00,87.8,68.6,29.94,SSW,206,0.0,0.0,53,0.00,,CLR,0.00,VWS V13.01,2013-09-11 14:53:00,
2013-09-11 10:59:00,88.2,68.3,29.94,SW,219,0.0,0.0,52,0.00,,CLR,0.00,VWS V13.01,2013-09-11 14:59:00,
2013-09-11 11:04:00,88.7,68.3,29.94,SW,219,0.0,0.0,51,0.00,,CLR,0.00,VWS V13.01,2013-09-11 15:04:00,
2013-09-11 11:09:00,89.2,68.8,29.94,SW,218,0.0,0.0,51,0.00,,CLR,0.00,VWS V13.01,2013-09-11 15:09:00,
2013-09-11 11:14:00,89.8,68.1,29.94,South,185,0.0,7.2,49,0.00,,CLR,0.00,VWS V13.01,2013-09-11 15:14:00,
2013-09-11 11:19:00,90.1,66.6,29.91,South,179,0.0,7.2,46,0.00,,CLR,0.00,VWS V13.01,2013-09-11 15:19:00,
2013-09-11 11:24:00,90.1,67.2,29.91,NE,45,0.0,0.0,47,0.00,,CLR,0.00,VWS V13.01,2013-09-11 15:24:00,
2013-09-11 11:29:00,90.1,65.3,29.91,NE,39,6.3,7.2,44,0.00,,CLR,0.00,VWS V13.01,2013-09-11 15:29:00,
2013-09-11 11:34:00,90.3,66.8,29.91,NNE,28,0.0,6.3,46,0.00,,CLR,0.00,VWS V13.01,2013-09-11 15:34:00,
2013-09-11 11:39:00,91.0,67.4,29.91,NNW,332,0.0,0.0,46,0.00,,CLR,0.00,VWS V13.01,2013-09-11 15:39:00,
2013-09-11 11:44:00,91.8,67.4,29.91,SSE,164,0.0,8.1,45,0.00,,CLR,0.00,VWS V13.01,2013-09-11 15:44:00,
2013-09-11 11:49:00,91.9,66.9,29.91,ESE,120,0.0,7.2,44,0.00,,CLR,0.00,VWS V13.01,2013-09-11 15:49:00,
2013-09-11 11:54:00,92.3,66.6,29.91,South,190,0.0,5.4,43,0.00,,CLR,0.00,VWS V13.01,2013-09-11 15:54:00,
2013-09-11 11:59:00,92.3,66.6,29.91,WSW,243,8.1,8.1,43,0.00,,CLR,0.00,VWS V13.01,2013-09-11 15:59:00,
2013-09-11 12:04:00,92.5,66.1,29.91,West,259,8.1,9.8,42,0.00,,CLR,0.00,VWS V13.01,2013-09-11 16:04:00,
2013-09-11 12:09:00,92.5,65.4,29.91,ENE,72,6.3,7.2,41,0.00,,CLR,0.00,VWS V13.01,2013-09-11 16:09:00,
2013-09-11 12:14:00,92.5,66.8,29.91,SSW,198,5.4,8.1,43,0.00,,CLR,0.00,VWS V13.01,2013-09-11 16:14:00,
2013-09-11 12:19:00,92.7,66.2,29.91,East,80,8.1,8.1,42,0.00,,CLR,0.00,VWS V13.01,2013-09-11 16:19:00,
2013-09-11 12:24:00,92.8,66.4,29.91,SW,221,6.3,6.3,42,0.00,,CLR,0.00,VWS V13.01,2013-09-11 16:24:00,
2013-09-11 12:29:00,93.2,66.7,29.91,South,170,0.0,9.8,42,0.00,,CLR,0.00,VWS V13.01,2013-09-11 16:29:00,
2013-09-11 12:34:00,92.3,65.9,29.91,SSE,164,5.4,5.4,42,0.00,,CLR,0.00,VWS V13.01,2013-09-11 16:34:00,
2013-09-11 12:39:00,93.2,68.1,29.91,NE,46,0.0,7.2,44,0.00,,CLR,0.00,VWS V13.01,2013-09-11 16:39:00,
2013-09-11 12:45:00,93.6,66.3,29.91,South,188,10.7,10.7,41,0.00,,CLR,0.00,VWS V13.01,2013-09-11 16:45:00,
2013-09-11 12:50:00,93.4,65.5,29.91,South,173,6.3,11.6,40,0.00,,CLR,0.00,VWS V13.01,2013-09-11 16:50:00,
2013-09-11 12:55:00,93.0,66.6,29.91,South,180,0.0,11.6,42,0.00,,CLR,0.00,VWS V13.01,2013-09-11 16:55:00,
2013-09-11 13:00:00,93.9,67.4,29.91,SSW,197,0.0,7.2,42,0.00,,CLR,0.00,VWS V13.01,2013-09-11 17:00:00,
2013-09-11 13:05:00,93.7,66.5,29.88,NE,35,0.0,8.9,41,0.00,,CLR,0.00,VWS V13.01,2013-09-11 17:05:00,
2013-09-11 13:10:00,94.3,66.3,29.88,NE,54,12.5,13.4,40,0.00,,CLR,0.00,VWS V13.01,2013-09-11 17:10:00,
2013-09-11 13:15:00,95.2,67.8,29.88,SE,133,6.3,7.2,41,0.00,,CLR,0.00,VWS V13.01,2013-09-11 17:15:00,
2013-09-11 13:20:00,95.2,66.3,29.88,NW,309,0.0,13.9,39,0.00,,CLR,0.00,VWS V13.01,2013-09-11 17:20:00,
2013-09-11 13:25:00,95.5,66.7,29.88,West,275,6.3,10.7,39,0.00,,CLR,0.00,VWS V13.01,2013-09-11 17:25:00,
2013-09-11 13:30:00,95.4,65.0,29.88,South,186,5.4,13.4,37,0.00,,CLR,0.00,VWS V13.01,2013-09-11 17:30:00,
2013-09-11 13:35:00,95.9,67.0,29.88,SE,128,16.6,16.6,39,0.00,,CLR,0.00,VWS V13.01,2013-09-11 17:35:00,
2013-09-11 13:40:00,95.9,65.5,29.88,South,184,7.2,15.7,37,0.00,,CLR,0.00,VWS V13.01,2013-09-11 17:40:00,
2013-09-11 13:45:00,95.2,64.8,29.88,South,189,6.3,7.2,37,0.00,,CLR,0.00,VWS V13.01,2013-09-11 17:45:00,
2013-09-11 13:50:00,94.1,65.4,29.88,South,177,9.8,10.7,39,0.00,,CLR,0.00,VWS V13.01,2013-09-11 17:50:00,
2013-09-11 13:55:00,93.2,65.3,29.88,SSW,199,5.4,10.7,40,0.00,,CLR,0.00,VWS V13.01,2013-09-11 17:55:00,
2013-09-11 14:00:00,93.9,65.9,29.88,South,180,9.8,14.8,40,0.00,,FEW039,0.00,VWS V13.01,2013-09-11 18:00:00,
2013-09-11 14:05:00,94.3,64.8,29.88,South,184,8.9,10.7,38,0.00,,FEW039,0.00,VWS V13.01,2013-09-11 18:05:00,
2013-09-11 14:10:00,95.2,66.3,29.88,SSW,194,9.8,11.6,39,0.00,,FEW039,0.00,VWS V13.01,2013-09-11 18:10:00,
2013-09-11 14:15:00,95.7,63.7,29.88,South,180,9.8,18.3,35,0.00,,FEW039,0.00,VWS V13.01,2013-09-11 18:15:00,
2013-09-11 14:21:00,95.5,65.1,29.85,ESE,104,8.9,13.4,37,0.00,,FEW039,0.00,VWS V13.01,2013-09-11 18:21:00,
2013-09-11 14:26:00,95.5,65.9,29.85,SSE,166,6.3,11.6,38,0.00,,FEW039,0.00,VWS V13.01,2013-09-11 18:26:00,
2013-09-11 14:31:00,95.9,64.7,29.85,South,173,9.8,14.8,36,0.00,,FEW039,0.00,VWS V13.01,2013-09-11 18:31:00,
2013-09-11 14:36:00,95.9,64.7,29.85,South,181,6.3,12.5,36,0.00,,FEW039,0.00,VWS V13.01,2013-09-11 18:36:00,
2013-09-11 14:41:00,96.3,65.0,29.85,SSW,207,6.3,14.8,36,0.00,,FEW039,0.00,VWS V13.01,2013-09-11 18:41:00,
2013-09-11 14:46:00,95.9,64.7,29.85,WSW,257,5.4,11.6,36,0.00,,FEW039,0.00,VWS V13.01,2013-09-11 18:46:00,
2013-09-11 14:51:00,95.5,65.9,29.85,SSW,211,12.5,14.8,38,0.00,,FEW039,0.00,VWS V13.01,2013-09-11 18:51:00,
2013-09-11 14:56:00,95.7,66.8,29.85,South,172,8.9,14.8,39,0.00,,FEW039,0.00,VWS V13.01,2013-09-11 18:56:00,
2013-09-11 15:01:00,96.1,67.1,29.85,SW,236,18.3,18.3,39,0.00,,FEW039,0.00,VWS V13.01,2013-09-11 19:01:00,
2013-09-11 15:06:00,95.0,65.4,29.85,South,179,10.7,16.6,38,0.00,,FEW039,0.00,VWS V13.01,2013-09-11 19:06:00,
2013-09-11 15:11:00,94.5,65.7,29.85,SSW,200,6.3,18.3,39,0.00,,FEW039,0.00,VWS V13.01,2013-09-11 19:11:00,
2013-09-11 15:16:00,94.6,65.9,29.85,West,277,0.0,11.6,39,0.00,,FEW039,0.00,VWS V13.01,2013-09-11 19:16:00,
2013-09-11 15:21:00,94.5,65.7,29.85,South,185,8.9,11.6,39,0.00,,FEW039,0.00,VWS V13.01,2013-09-11 19:21:00,
2013-09-11 15:26:00,94.8,66.0,29.85,South,184,13.4,16.6,39,0.00,,FEW039,0.00,VWS V13.01,2013-09-11 19:26:00,
2013-09-11 15:31:00,94.6,65.1,29.85,South,186,5.4,11.6,38,0.00,,FEW039,0.00,VWS V13.01,2013-09-11 19:31:00,
2013-09-11 15:36:00,94.1,64.6,29.83,SSE,149,8.1,14.8,38,0.00,,FEW039,0.00,VWS V13.01,2013-09-11 19:36:00,
2013-09-11 15:41:00,94.5,65.7,29.83,South,189,8.9,11.6,39,0.00,,FEW039,0.00,VWS V13.01,2013-09-11 19:41:00,
2013-09-11 15:47:00,94.6,64.3,29.83,SSW,195,10.7,12.5,37,0.00,,FEW039,0.00,VWS V13.01,2013-09-11 19:47:00,
2013-09-11 15:52:00,94.5,64.9,29.83,West,275,9.8,9.8,38,0.00,,FEW039,0.00,VWS V13.01,2013-09-11 19:52:00,
2013-09-11 15:57:00,94.6,64.3,29.83,West,278,7.2,13.9,37,0.00,,FEW039,0.00,VWS V13.01,2013-09-11 19:57:00,
2013-09-11 16:02:00,94.6,64.3,29.83,SSW,198,5.4,13.4,37,0.00,,FEW039,0.00,VWS V13.01,2013-09-11 20:02:00,
2013-09-11 16:07:00,94.6,64.3,29.83,SSW,203,7.2,11.6,37,0.00,,FEW039,0.00,VWS V13.01,2013-09-11 20:07:00,
2013-09-11 16:12:00,93.9,65.2,29.83,South,182,6.3,10.7,39,0.00,,FEW039,0.00,VWS V13.01,2013-09-11 20:12:00,
2013-09-11 16:17:00,94.3,64.0,29.83,SSW,203,14.8,14.8,37,0.00,,FEW039,0.00,VWS V13.01,2013-09-11 20:17:00,
2013-09-11 16:22:00,94.1,62.3,29.83,WSW,254,8.1,13.9,35,0.00,,FEW039,0.00,VWS V13.01,2013-09-11 20:22:00,
2013-09-11 21:07:00,77.4,68.0,29.85,South,172,0.0,0.0,73,0.00,,,0.00,VWS V13.01,2013-09-12 01:07:00,
2013-09-11 21:12:00,77.5,67.4,29.85,West,263,6.3,8.9,71,0.00,,,0.00,VWS V13.01,2013-09-12 01:12:00,
2013-09-11 21:17:00,77.9,67.3,29.85,WNW,282,0.0,0.0,70,0.00,,,0.00,VWS V13.01,2013-09-12 01:17:00,
2013-09-11 21:22:00,77.7,66.8,29.85,WNW,301,0.0,0.0,69,0.00,,,0.00,VWS V13.01,2013-09-12 01:22:00,
2013-09-11 21:27:00,77.7,66.3,29.85,WNW,301,0.0,5.4,68,0.00,,,0.00,VWS V13.01,2013-09-12 01:27:00,
2013-09-11 21:32:00,77.9,66.5,29.85,WNW,301,0.0,0.0,68,0.00,,,0.00,VWS V13.01,2013-09-12 01:32:00,
2013-09-11 21:37:00,78.1,65.8,29.85,South,179,8.1,8.1,66,0.00,,,0.00,VWS V13.01,2013-09-12 01:37:00,
2013-09-11 21:42:00,78.6,65.0,29.85,SSW,195,0.0,0.0,63,0.00,,,0.00,VWS V13.01,2013-09-12 01:42:00,
2013-09-11 21:47:00,79.0,64.9,29.83,West,259,0.0,7.2,62,0.00,,,0.00,VWS V13.01,2013-09-12 01:47:00,
2013-09-11 21:52:00,79.0,63.9,29.83,WNW,290,0.0,9.8,60,0.00,,,0.00,VWS V13.01,2013-09-12 01:52:00,
2013-09-11 21:57:00,79.0,63.9,29.83,WNW,291,5.4,5.4,60,0.00,,,0.00,VWS V13.01,2013-09-12 01:57:00,
2013-09-11 22:02:00,78.6,64.1,29.83,WNW,291,0.0,0.0,61,0.00,,FEW055,0.00,VWS V13.01,2013-09-12 02:02:00,
2013-09-11 22:07:00,78.1,64.5,29.83,WNW,290,0.0,0.0,63,0.00,,FEW055,0.00,VWS V13.01,2013-09-12 02:07:00,
2013-09-11 22:12:00,77.9,65.2,29.83,WNW,291,0.0,6.3,65,0.00,,FEW055,0.00,VWS V13.01,2013-09-12 02:12:00,
2013-09-11 22:17:00,77.7,65.0,29.83,West,279,0.0,0.0,65,0.00,,FEW055,0.00,VWS V13.01,2013-09-12 02:17:00,
2013-09-11 22:22:00,77.5,65.7,29.83,West,280,0.0,0.0,67,0.00,,FEW055,0.00,VWS V13.01,2013-09-12 02:22:00,
2013-09-11 22:27:00,77.4,66.0,29.83,West,279,0.0,0.0,68,0.00,,FEW055,0.00,VWS V13.01,2013-09-12 02:27:00,
2013-09-11 22:32:00,77.4,66.4,29.83,West,281,5.4,5.4,69,0.00,,FEW055,0.00,VWS V13.01,2013-09-12 02:32:00,
2013-09-11 22:37:00,77.4,66.4,29.83,West,281,0.0,0.0,69,0.00,,FEW055,0.00,VWS V13.01,2013-09-12 02:37:00,
2013-09-11 22:42:00,77.0,66.1,29.83,West,281,0.0,0.0,69,0.00,,FEW055,0.00,VWS V13.01,2013-09-12 02:42:00,
2013-09-11 22:47:00,76.8,66.7,29.83,NNW,333,7.2,7.2,71,0.00,,FEW055,0.00,VWS V13.01,2013-09-12 02:47:00,
2013-09-11 22:52:00,76.8,67.1,29.83,NNW,341,0.0,7.2,72,0.00,,FEW055,0.00,VWS V13.01,2013-09-12 02:52:00,
2013-09-11 22:57:00,76.6,67.7,29.83,NNW,343,0.0,7.2,74,0.00,,FEW055,0.00,VWS V13.01,2013-09-12 02:57:00,
2013-09-11 23:02:00,76.5,67.6,29.83,NNE,28,5.4,8.1,74,0.00,,CLR,0.00,VWS V13.01,2013-09-12 03:02:00,
2013-09-11 23:07:00,76.3,67.4,29.83,NNE,28,0.0,0.0,74,0.00,,CLR,0.00,VWS V13.01,2013-09-12 03:07:00,
2013-09-11 23:13:00,76.3,67.4,29.83,NW,310,0.0,5.4,74,0.00,,CLR,0.00,VWS V13.01,2013-09-12 03:13:00,
2013-09-11 23:18:00,76.3,67.4,29.83,NW,310,0.0,0.0,74,0.00,,CLR,0.00,VWS V13.01,2013-09-12 03:18:00,
2013-09-11 23:23:00,75.9,67.4,29.83,NW,316,0.0,0.0,75,0.00,,CLR,0.00,VWS V13.01,2013-09-12 03:23:00,
2013-09-11 23:28:00,75.9,67.4,29.83,NW,316,0.0,0.0,75,0.00,,CLR,0.00,VWS V13.01,2013-09-12 03:28:00,
2013-09-11 23:33:00,75.7,67.3,29.83,NW,316,0.0,0.0,75,0.00,,CLR,0.00,VWS V13.01,2013-09-12 03:33:00,
2013-09-11 23:38:00,75.7,67.6,29.83,NW,316,0.0,0.0,76,0.00,,CLR,0.00,VWS V13.01,2013-09-12 03:38:00,
2013-09-11 23:43:00,75.9,67.8,29.83,NW,316,0.0,0.0,76,0.00,,CLR,0.00,VWS V13.01,2013-09-12 03:43:00,
2013-09-11 23:48:00,75.9,67.8,29.83,WSW,250,0.0,5.4,76,0.00,,CLR,0.00,VWS V13.01,2013-09-12 03:48:00,
2013-09-11 23:53:00,76.1,68.0,29.83,WSW,250,0.0,0.0,76,0.00,,CLR,0.00,VWS V13.01,2013-09-12 03:53:00,
2013-09-11 23:58:00,76.1,67.6,29.83,WSW,249,0.0,0.0,75,0.00,,CLR,0.00,VWS V13.01,2013-09-12 03:58:00,